sensor_id;sensor_type;location;lat;lon;timestamp;pressure;altitude;pressure_sealevel;temperature;humidity
47897;BME280;39629;51.400;5.494;2023-02-12T00:01:10;103662.72;;;6.07;100.00
47897;BME280;39629;51.400;5.494;2023-02-12T00:06:12;103672.06;;;6.04;100.00
47897;BME280;39629;51.400;5.494;2023-02-12T00:11:18;103667.25;;;6.10;100.00
47897;BME280;39629;51.400;5.494;2023-02-12T00:16:22;103669.78;;;6.08;100.00
47897;BME280;39629;51.400;5.494;2023-02-12T00:21:24;103676.81;;;6.09;100.00
47897;BME280;39629;51.400;5.494;2023-02-12T00:26:27;103673.19;;;6.07;100.00
47897;BME280;39629;51.400;5.494;2023-02-12T00:31:30;103666.66;;;6.01;100.00
47897;BME280;39629;51.400;5.494;2023-02-12T00:36:32;103666.41;;;5.96;100.00
47897;BME280;39629;51.400;5.494;2023-02-12T00:41:35;103666.31;;;5.94;100.00
47897;BME280;39629;51.400;5.494;2023-02-12T00:46:37;103667.19;;;5.95;100.00
47897;BME280;39629;51.400;5.494;2023-02-12T00:51:39;103669.53;;;5.90;100.00
47897;BME280;39629;51.400;5.494;2023-02-12T00:56:45;103670.00;;;5.98;100.00
47897;BME280;39629;51.400;5.494;2023-02-12T01:01:46;103671.75;;;5.84;100.00
47897;BME280;39629;51.400;5.494;2023-02-12T01:06:49;103671.47;;;5.79;100.00
47897;BME280;39629;51.400;5.494;2023-02-12T01:11:52;103675.06;;;5.82;100.00
47897;BME280;39629;51.400;5.494;2023-02-12T01:16:54;103674.97;;;5.80;100.00
47897;BME280;39629;51.400;5.494;2023-02-12T01:21:56;103666.25;;;5.79;100.00
47897;BME280;39629;51.400;5.494;2023-02-12T01:26:59;103678.53;;;5.81;100.00
47897;BME280;39629;51.400;5.494;2023-02-12T01:32:02;103675.81;;;5.79;100.00
47897;BME280;39629;51.400;5.494;2023-02-12T01:37:04;103667.38;;;5.70;100.00
47897;BME280;39629;51.400;5.494;2023-02-12T01:42:11;103674.34;;;5.69;100.00
47897;BME280;39629;51.400;5.494;2023-02-12T01:47:15;103660.44;;;5.70;100.00
47897;BME280;39629;51.400;5.494;2023-02-12T01:52:23;103647.28;;;5.69;100.00
47897;BME280;39629;51.400;5.494;2023-02-12T01:57:31;103656.84;;;5.68;100.00
47897;BME280;39629;51.400;5.494;2023-02-12T02:02:33;103655.44;;;5.73;100.00
47897;BME280;39629;51.400;5.494;2023-02-12T02:07:37;103649.22;;;5.58;100.00
47897;BME280;39629;51.400;5.494;2023-02-12T02:12:41;103651.72;;;5.56;100.00
47897;BME280;39629;51.400;5.494;2023-02-12T02:18:06;103649.03;;;5.55;100.00
47897;BME280;39629;51.400;5.494;2023-02-12T02:23:25;103653.91;;;5.63;100.00
47897;BME280;39629;51.400;5.494;2023-02-12T02:28:52;103655.06;;;5.54;100.00
47897;BME280;39629;51.400;5.494;2023-02-12T02:34:02;103657.47;;;5.51;100.00
47897;BME280;39629;51.400;5.494;2023-02-12T02:39:13;103654.88;;;5.51;100.00
47897;BME280;39629;51.400;5.494;2023-02-12T02:44:21;103653.06;;;5.50;100.00
47897;BME280;39629;51.400;5.494;2023-02-12T02:49:28;103649.22;;;5.58;100.00
47897;BME280;39629;51.400;5.494;2023-02-12T02:54:35;103657.97;;;5.58;100.00
47897;BME280;39629;51.400;5.494;2023-02-12T02:59:42;103652.34;;;5.52;100.00
47897;BME280;39629;51.400;5.494;2023-02-12T03:04:50;103652.44;;;5.54;100.00
47897;BME280;39629;51.400;5.494;2023-02-12T03:09:57;103649.66;;;5.51;100.00
47897;BME280;39629;51.400;5.494;2023-02-12T03:15:04;103642.22;;;5.57;100.00
47897;BME280;39629;51.400;5.494;2023-02-12T03:20:14;103639.81;;;5.47;100.00
47897;BME280;39629;51.400;5.494;2023-02-12T03:25:22;103643.63;;;5.52;100.00
47897;BME280;39629;51.400;5.494;2023-02-12T03:30:36;103641.50;;;5.59;100.00
47897;BME280;39629;51.400;5.494;2023-02-12T03:35:49;103642.22;;;5.57;100.00
47897;BME280;39629;51.400;5.494;2023-02-12T03:40:57;103646.03;;;5.49;100.00
47897;BME280;39629;51.400;5.494;2023-02-12T03:46:09;103649.94;;;5.55;100.00
47897;BME280;39629;51.400;5.494;2023-02-12T03:51:21;103640.00;;;5.50;100.00
47897;BME280;39629;51.400;5.494;2023-02-12T03:56:27;103638.22;;;5.49;100.00
47897;BME280;39629;51.400;5.494;2023-02-12T04:01:31;103639.81;;;5.47;100.00
47897;BME280;39629;51.400;5.494;2023-02-12T04:06:35;103651.19;;;5.47;100.00
47897;BME280;39629;51.400;5.494;2023-02-12T04:11:46;103641.81;;;5.51;100.00
47897;BME280;39629;51.400;5.494;2023-02-12T04:16:53;103639.63;;;5.43;100.00
47897;BME280;39629;51.400;5.494;2023-02-12T04:22:02;103647.03;;;5.51;100.00
47897;BME280;39629;51.400;5.494;2023-02-12T04:27:14;103645.94;;;5.47;100.00
47897;BME280;39629;51.400;5.494;2023-02-12T04:32:20;103662.31;;;5.44;100.00
47897;BME280;39629;51.400;5.494;2023-02-12T04:37:31;103677.06;;;5.44;100.00
47897;BME280;39629;51.400;5.494;2023-02-12T04:42:40;103669.34;;;5.45;100.00
47897;BME280;39629;51.400;5.494;2023-02-12T04:47:42;103666.44;;;5.41;100.00
47897;BME280;39629;51.400;5.494;2023-02-12T04:52:45;103666.44;;;5.41;100.00
47897;BME280;39629;51.400;5.494;2023-02-12T04:57:47;103669.16;;;5.42;100.00
47897;BME280;39629;51.400;5.494;2023-02-12T05:02:48;103662.63;;;5.36;100.00
47897;BME280;39629;51.400;5.494;2023-02-12T05:07:51;103662.63;;;5.36;100.00
47897;BME280;39629;51.400;5.494;2023-02-12T05:12:54;103667.13;;;5.38;100.00
47897;BME280;39629;51.400;5.494;2023-02-12T05:17:56;103673.47;;;5.42;100.00
47897;BME280;39629;51.400;5.494;2023-02-12T05:22:58;103669.84;;;5.40;100.00
47897;BME280;39629;51.400;5.494;2023-02-12T05:28:00;103671.38;;;5.36;100.00
47897;BME280;39629;51.400;5.494;2023-02-12T05:33:02;103672.88;;;5.33;100.00
47897;BME280;39629;51.400;5.494;2023-02-12T05:38:05;103679.91;;;5.34;100.00
47897;BME280;39629;51.400;5.494;2023-02-12T05:43:07;103673.81;;;5.33;100.00
47897;BME280;39629;51.400;5.494;2023-02-12T05:48:08;103679.91;;;5.34;100.00
47897;BME280;39629;51.400;5.494;2023-02-12T05:53:11;103678.50;;;5.39;100.00
47897;BME280;39629;51.400;5.494;2023-02-12T05:58:13;103681.03;;;5.37;100.00
47897;BME280;39629;51.400;5.494;2023-02-12T06:03:14;103678.78;;;5.30;100.00
47897;BME280;39629;51.400;5.494;2023-02-12T06:08:17;103688.63;;;5.34;100.00
47897;BME280;39629;51.400;5.494;2023-02-12T06:13:19;103687.84;;;5.35;100.00
47897;BME280;39629;51.400;5.494;2023-02-12T06:18:21;103690.25;;;5.32;100.00
47897;BME280;39629;51.400;5.494;2023-02-12T06:23:24;103688.44;;;5.31;100.00
47897;BME280;39629;51.400;5.494;2023-02-12T06:28:26;103692.38;;;5.38;100.00
47897;BME280;39629;51.400;5.494;2023-02-12T06:33:28;103699.78;;;5.32;100.00
47897;BME280;39629;51.400;5.494;2023-02-12T06:38:33;103691.84;;;5.30;100.00
47897;BME280;39629;51.400;5.494;2023-02-12T06:43:35;103701.59;;;5.33;100.00
47897;BME280;39629;51.400;5.494;2023-02-12T06:48:37;103697.81;;;5.27;100.00
47897;BME280;39629;51.400;5.494;2023-02-12T06:53:40;103704.72;;;5.27;100.00
47897;BME280;39629;51.400;5.494;2023-02-12T06:58:43;103700.19;;;5.24;100.00
47897;BME280;39629;51.400;5.494;2023-02-12T07:03:47;103717.16;;;5.31;100.00
47897;BME280;39629;51.400;5.494;2023-02-12T07:08:50;103715.34;;;5.30;100.00
47897;BME280;39629;51.400;5.494;2023-02-12T07:13:52;103722.63;;;5.21;100.00
47897;BME280;39629;51.400;5.494;2023-02-12T07:18:54;103723.50;;;5.21;100.00
47897;BME280;39629;51.400;5.494;2023-02-12T07:23:57;103724.41;;;5.22;100.00
47897;BME280;39629;51.400;5.494;2023-02-12T07:28:58;103731.25;;;5.33;100.00
47897;BME280;39629;51.400;5.494;2023-02-12T07:34:00;103735.16;;;5.26;100.00
47897;BME280;39629;51.400;5.494;2023-02-12T07:39:03;103734.38;;;5.27;100.00
47897;BME280;39629;51.400;5.494;2023-02-12T07:44:09;103732.94;;;5.33;100.00
47897;BME280;39629;51.400;5.494;2023-02-12T07:49:12;103732.34;;;5.37;100.00
47897;BME280;39629;51.400;5.494;2023-02-12T07:54:16;103742.97;;;5.40;100.00
47897;BME280;39629;51.400;5.494;2023-02-12T07:59:18;103739.84;;;5.45;100.00
47897;BME280;39629;51.400;5.494;2023-02-12T08:04:23;103745.59;;;5.53;100.00
47897;BME280;39629;51.400;5.494;2023-02-12T08:09:28;103758.94;;;5.58;100.00
47897;BME280;39629;51.400;5.494;2023-02-12T08:14:30;103741.47;;;5.57;100.00
47897;BME280;39629;51.400;5.494;2023-02-12T08:19:32;103747.19;;;5.65;100.00
47897;BME280;39629;51.400;5.494;2023-02-12T08:24:35;103747.78;;;5.74;100.00
47897;BME280;39629;51.400;5.494;2023-02-12T08:29:37;103753.47;;;5.82;100.00
47897;BME280;39629;51.400;5.494;2023-02-12T08:34:38;103751.19;;;5.86;100.00
47897;BME280;39629;51.400;5.494;2023-02-12T08:39:42;103762.09;;;5.94;100.00
47897;BME280;39629;51.400;5.494;2023-02-12T08:44:43;103756.47;;;6.01;100.00
47897;BME280;39629;51.400;5.494;2023-02-12T08:49:45;103763.38;;;6.14;100.00
47897;BME280;39629;51.400;5.494;2023-02-12T08:54:48;103762.13;;;6.22;100.00
47897;BME280;39629;51.400;5.494;2023-02-12T08:59:49;103760.38;;;6.36;100.00
47897;BME280;39629;51.400;5.494;2023-02-12T09:04:51;103761.03;;;6.47;100.00
47897;BME280;39629;51.400;5.494;2023-02-12T09:09:54;103762.44;;;6.55;100.00
47897;BME280;39629;51.400;5.494;2023-02-12T09:14:56;103755.31;;;6.68;100.00
47897;BME280;39629;51.400;5.494;2023-02-12T09:19:57;103769.03;;;6.78;100.00
47897;BME280;39629;51.400;5.494;2023-02-12T09:25:03;103764.53;;;6.91;100.00
47897;BME280;39629;51.400;5.494;2023-02-12T09:30:06;103769.53;;;7.01;100.00
47897;BME280;39629;51.400;5.494;2023-02-12T09:35:08;103774.31;;;7.08;100.00
47897;BME280;39629;51.400;5.494;2023-02-12T09:40:18;103778.91;;;7.12;100.00
47897;BME280;39629;51.400;5.494;2023-02-12T09:45:24;103771.41;;;7.19;100.00
47897;BME280;39629;51.400;5.494;2023-02-12T09:50:32;103773.13;;;7.33;100.00
47897;BME280;39629;51.400;5.494;2023-02-12T09:55:39;103764.97;;;7.43;100.00
47897;BME280;39629;51.400;5.494;2023-02-12T10:00:41;103771.47;;;7.50;100.00
47897;BME280;39629;51.400;5.494;2023-02-12T10:05:48;103778.47;;;7.66;100.00
47897;BME280;39629;51.400;5.494;2023-02-12T10:10:54;103786.53;;;7.69;100.00
47897;BME280;39629;51.400;5.494;2023-02-12T10:16:04;103781.38;;;7.71;100.00
47897;BME280;39629;51.400;5.494;2023-02-12T10:21:18;103785.13;;;7.76;100.00
47897;BME280;39629;51.400;5.494;2023-02-12T10:26:28;103787.81;;;7.77;100.00
47897;BME280;39629;51.400;5.494;2023-02-12T10:31:33;103791.78;;;7.86;100.00
47897;BME280;39629;51.400;5.494;2023-02-12T10:36:40;103778.34;;;7.79;100.00
47897;BME280;39629;51.400;5.494;2023-02-12T10:41:46;103784.28;;;7.92;100.00
47897;BME280;39629;51.400;5.494;2023-02-12T10:46:50;103786.19;;;7.94;100.00
47897;BME280;39629;51.400;5.494;2023-02-12T10:51:59;103780.31;;;8.15;100.00
47897;BME280;39629;51.400;5.494;2023-02-12T10:57:10;103780.78;;;8.24;100.00
47897;BME280;39629;51.400;5.494;2023-02-12T11:02:25;103780.72;;;8.23;100.00
47897;BME280;39629;51.400;5.494;2023-02-12T11:07:27;103775.16;;;8.33;100.00
47897;BME280;39629;51.400;5.494;2023-02-12T11:12:33;103777.78;;;8.33;100.00
47897;BME280;39629;51.400;5.494;2023-02-12T11:17:38;103765.69;;;8.37;100.00
47897;BME280;39629;51.400;5.494;2023-02-12T11:22:48;103765.41;;;8.47;100.00
47897;BME280;39629;51.400;5.494;2023-02-12T11:28:05;103762.66;;;8.45;100.00
47897;BME280;39629;51.400;5.494;2023-02-12T11:33:22;103765.94;;;8.58;100.00
47897;BME280;39629;51.400;5.494;2023-02-12T11:38:27;103752.66;;;8.55;100.00
47897;BME280;39629;51.400;5.494;2023-02-12T11:43:33;103746.44;;;8.52;100.00
47897;BME280;39629;51.400;5.494;2023-02-12T11:48:38;103734.91;;;8.67;100.00
47897;BME280;39629;51.400;5.494;2023-02-12T11:53:41;103736.72;;;8.68;100.00
47897;BME280;39629;51.400;5.494;2023-02-12T11:58:49;103732.78;;;8.76;100.00
47897;BME280;39629;51.400;5.494;2023-02-12T12:03:53;103732.84;;;8.78;100.00
47897;BME280;39629;51.400;5.494;2023-02-12T12:09:03;103727.91;;;8.84;100.00
47897;BME280;39629;51.400;5.494;2023-02-12T12:14:14;103722.19;;;8.75;100.00
47897;BME280;39629;51.400;5.494;2023-02-12T12:19:22;103721.50;;;8.95;100.00
47897;BME280;39629;51.400;5.494;2023-02-12T12:24:46;103712.88;;;8.81;100.00
47897;BME280;39629;51.400;5.494;2023-02-12T12:29:54;103703.28;;;8.82;100.00
47897;BME280;39629;51.400;5.494;2023-02-12T12:35:03;103701.81;;;8.87;100.00
47897;BME280;39629;51.400;5.494;2023-02-12T12:40:18;103700.38;;;8.94;100.00
47897;BME280;39629;51.400;5.494;2023-02-12T12:45:46;103695.78;;;8.90;100.00
47897;BME280;39629;51.400;5.494;2023-02-12T12:51:03;103691.66;;;8.77;100.00
47897;BME280;39629;51.400;5.494;2023-02-12T12:56:33;103694.34;;;8.95;100.00
47897;BME280;39629;51.400;5.494;2023-02-12T13:01:52;103680.88;;;8.89;100.00
47897;BME280;39629;51.400;5.494;2023-02-12T13:07:03;103679.22;;;8.91;100.00
47897;BME280;39629;51.400;5.494;2023-02-12T13:12:32;103673.31;;;8.95;100.00
47897;BME280;39629;51.400;5.494;2023-02-12T13:17:42;103670.44;;;8.72;100.00
47897;BME280;39629;51.400;5.494;2023-02-12T13:22:52;103664.19;;;8.70;100.00
47897;BME280;39629;51.400;5.494;2023-02-12T13:27:58;103666.56;;;9.00;100.00
47897;BME280;39629;51.400;5.494;2023-02-12T13:33:09;103665.78;;;8.84;100.00
47897;BME280;39629;51.400;5.494;2023-02-12T13:38:18;103663.31;;;8.88;100.00
47897;BME280;39629;51.400;5.494;2023-02-12T13:43:34;103653.41;;;8.82;100.00
47897;BME280;39629;51.400;5.494;2023-02-12T13:48:49;103653.09;;;8.76;100.00
47897;BME280;39629;51.400;5.494;2023-02-12T13:54:09;103658.13;;;8.89;100.00
47897;BME280;39629;51.400;5.494;2023-02-12T13:59:39;103644.94;;;8.88;100.00
47897;BME280;39629;51.400;5.494;2023-02-12T14:04:43;103643.56;;;8.60;100.00
47897;BME280;39629;51.400;5.494;2023-02-12T14:10:00;103631.13;;;8.74;100.00
47897;BME280;39629;51.400;5.494;2023-02-12T14:15:05;103633.88;;;8.77;100.00
47897;BME280;39629;51.400;5.494;2023-02-12T14:20:22;103638.78;;;8.69;100.00
47897;BME280;39629;51.400;5.494;2023-02-12T14:25:38;103629.03;;;8.84;100.00
47897;BME280;39629;51.400;5.494;2023-02-12T14:30:41;103635.47;;;8.73;100.00
47897;BME280;39629;51.400;5.494;2023-02-12T14:35:44;103631.78;;;8.69;100.00
47897;BME280;39629;51.400;5.494;2023-02-12T14:40:47;103640.00;;;8.59;100.00
47897;BME280;39629;51.400;5.494;2023-02-12T14:45:49;103637.63;;;8.64;100.00
47897;BME280;39629;51.400;5.494;2023-02-12T14:50:52;103624.78;;;8.52;100.00
47897;BME280;39629;51.400;5.494;2023-02-12T14:55:54;103628.47;;;8.56;100.00
47897;BME280;39629;51.400;5.494;2023-02-12T15:00:58;103624.03;;;8.55;100.00
47897;BME280;39629;51.400;5.494;2023-02-12T15:06:06;103616.09;;;8.53;100.00
47897;BME280;39629;51.400;5.494;2023-02-12T15:11:19;103615.03;;;8.49;100.00
47897;BME280;39629;51.400;5.494;2023-02-12T15:16:28;103615.69;;;8.45;100.00
47897;BME280;39629;51.400;5.494;2023-02-12T15:21:34;103612.31;;;8.48;100.00
47897;BME280;39629;51.400;5.494;2023-02-12T15:26:40;103610.44;;;8.45;100.00
47897;BME280;39629;51.400;5.494;2023-02-12T15:31:42;103609.31;;;8.40;100.00
47897;BME280;39629;51.400;5.494;2023-02-12T15:36:45;103604.91;;;8.39;100.00
47897;BME280;39629;51.400;5.494;2023-02-12T15:41:47;103605.56;;;8.35;100.00
47897;BME280;39629;51.400;5.494;2023-02-12T15:46:58;103601.19;;;8.35;100.00
47897;BME280;39629;51.400;5.494;2023-02-12T15:52:05;103600.31;;;8.35;100.00
47897;BME280;39629;51.400;5.494;2023-02-12T15:57:09;103591.16;;;8.27;100.00
47897;BME280;39629;51.400;5.494;2023-02-12T16:02:18;103595.44;;;8.25;100.00
47897;BME280;39629;51.400;5.494;2023-02-12T16:07:22;103601.66;;;8.27;100.00
47897;BME280;39629;51.400;5.494;2023-02-12T16:12:28;103603.91;;;8.19;100.00
47897;BME280;39629;51.400;5.494;2023-02-12T16:17:33;103595.84;;;8.16;100.00
47897;BME280;39629;51.400;5.494;2023-02-12T16:22:39;103601.75;;;8.12;100.00
47897;BME280;39629;51.400;5.494;2023-02-12T16:27:52;103593.50;;;8.04;100.00
47897;BME280;39629;51.400;5.494;2023-02-12T16:32:55;103600.38;;;8.02;100.00
47897;BME280;39629;51.400;5.494;2023-02-12T16:38:01;103585.97;;;7.94;100.00
47897;BME280;39629;51.400;5.494;2023-02-12T16:43:21;103590.31;;;7.93;100.00
47897;BME280;39629;51.400;5.494;2023-02-12T16:48:23;103596.22;;;7.89;100.00
47897;BME280;39629;51.400;5.494;2023-02-12T16:53:36;103588.03;;;7.83;100.00
47897;BME280;39629;51.400;5.494;2023-02-12T16:58:42;103593.69;;;7.74;100.00
47897;BME280;39629;51.400;5.494;2023-02-12T17:03:45;103598.91;;;7.74;100.00
47897;BME280;39629;51.400;5.494;2023-02-12T17:08:51;103606.47;;;7.68;100.00
47897;BME280;39629;51.400;5.494;2023-02-12T17:13:54;103605.16;;;7.60;100.00
47897;BME280;39629;51.400;5.494;2023-02-12T17:18:56;103598.09;;;7.59;100.00
47897;BME280;39629;51.400;5.494;2023-02-12T17:23:59;103598.44;;;7.48;100.00
47897;BME280;39629;51.400;5.494;2023-02-12T17:29:00;103595.53;;;7.44;100.00
47897;BME280;39629;51.400;5.494;2023-02-12T17:34:04;103603.84;;;7.52;100.00
47897;BME280;39629;51.400;5.494;2023-02-12T17:39:10;103605.47;;;7.66;100.00
47897;BME280;39629;51.400;5.494;2023-02-12T17:44:11;103614.66;;;7.41;100.00
47897;BME280;39629;51.400;5.494;2023-02-12T17:49:14;103612.84;;;7.40;100.00
47897;BME280;39629;51.400;5.494;2023-02-12T17:54:17;103614.47;;;7.38;100.00
47897;BME280;39629;51.400;5.494;2023-02-12T17:59:19;103610.88;;;7.36;100.00
47897;BME280;39629;51.400;5.494;2023-02-12T18:04:20;103618.81;;;7.38;100.00
47897;BME280;39629;51.400;5.494;2023-02-12T18:09:23;103612.56;;;7.36;100.00
47897;BME280;39629;51.400;5.494;2023-02-12T18:14:25;103621.00;;;7.30;100.00
47897;BME280;39629;51.400;5.494;2023-02-12T18:19:27;103614.78;;;7.28;100.00
47897;BME280;39629;51.400;5.494;2023-02-12T18:24:31;103606.91;;;7.28;100.00
47897;BME280;39629;51.400;5.494;2023-02-12T18:29:34;103608.72;;;7.29;100.00
47897;BME280;39629;51.400;5.494;2023-02-12T18:34:35;103612.81;;;7.24;100.00
47897;BME280;39629;51.400;5.494;2023-02-12T18:39:38;103612.72;;;7.22;100.00
47897;BME280;39629;51.400;5.494;2023-02-12T18:44:40;103606.41;;;7.19;100.00
47897;BME280;39629;51.400;5.494;2023-02-12T18:49:42;103602.63;;;7.13;100.00
47897;BME280;39629;51.400;5.494;2023-02-12T18:54:45;103601.72;;;7.13;100.00
47897;BME280;39629;51.400;5.494;2023-02-12T18:59:46;103598.94;;;7.10;100.00
47897;BME280;39629;51.400;5.494;2023-02-12T19:04:48;103600.56;;;7.08;100.00
47897;BME280;39629;51.400;5.494;2023-02-12T19:09:51;103592.63;;;7.06;100.00
47897;BME280;39629;51.400;5.494;2023-02-12T19:14:53;103589.31;;;6.94;100.00
47897;BME280;39629;51.400;5.494;2023-02-12T19:19:55;103593.50;;;6.90;100.00
47897;BME280;39629;51.400;5.494;2023-02-12T19:24:57;103594.03;;;6.85;100.00
47897;BME280;39629;51.400;5.494;2023-02-12T19:29:59;103601.97;;;6.86;100.00
47897;BME280;39629;51.400;5.494;2023-02-12T19:35:01;103600.09;;;6.84;100.00
47897;BME280;39629;51.400;5.494;2023-02-12T19:40:05;103600.72;;;6.79;100.00
47897;BME280;39629;51.400;5.494;2023-02-12T19:45:07;103602.53;;;6.80;100.00
47897;BME280;39629;51.400;5.494;2023-02-12T19:50:09;103603.09;;;6.75;100.00
47897;BME280;39629;51.400;5.494;2023-02-12T19:55:12;103605.78;;;6.76;100.00
47897;BME280;39629;51.400;5.494;2023-02-12T20:00:15;103597.78;;;6.73;100.00
47897;BME280;39629;51.400;5.494;2023-02-12T20:05:16;103588.91;;;6.71;100.00
47897;BME280;39629;51.400;5.494;2023-02-12T20:10:19;103602.09;;;6.73;100.00
47897;BME280;39629;51.400;5.494;2023-02-12T20:15:21;103593.88;;;6.67;100.00
47897;BME280;39629;51.400;5.494;2023-02-12T20:20:25;103599.75;;;6.62;100.00
47897;BME280;39629;51.400;5.494;2023-02-12T20:25:28;103596.84;;;6.58;100.00
47897;BME280;39629;51.400;5.494;2023-02-12T20:30:30;103585.41;;;6.56;100.00
47897;BME280;39629;51.400;5.494;2023-02-12T20:35:32;103591.38;;;6.53;100.00
47897;BME280;39629;51.400;5.494;2023-02-12T20:40:36;103583.88;;;6.44;100.00
47897;BME280;39629;51.400;5.494;2023-02-12T20:45:37;103585.38;;;6.41;100.00
47897;BME280;39629;51.400;5.494;2023-02-12T20:50:39;103582.34;;;6.33;100.00
47897;BME280;39629;51.400;5.494;2023-02-12T20:55:42;103589.19;;;6.31;100.00
47897;BME280;39629;51.400;5.494;2023-02-12T21:00:43;103597.31;;;6.21;100.00
47897;BME280;39629;51.400;5.494;2023-02-12T21:05:45;103591.06;;;6.19;100.00
47897;BME280;39629;51.400;5.494;2023-02-12T21:10:48;103590.72;;;6.12;100.00
47897;BME280;39629;51.400;5.494;2023-02-12T21:15:50;103574.72;;;6.08;100.00
47897;BME280;39629;51.400;5.494;2023-02-12T21:20:51;103581.03;;;5.96;100.00
47897;BME280;39629;51.400;5.494;2023-02-12T21:26:00;103578.78;;;5.88;100.00
47897;BME280;39629;51.400;5.494;2023-02-12T21:31:06;103571.47;;;5.82;100.00
47897;BME280;39629;51.400;5.494;2023-02-12T21:36:10;103569.28;;;5.75;100.00
47897;BME280;39629;51.400;5.494;2023-02-12T21:41:14;103573.41;;;5.71;100.00
47897;BME280;39629;51.400;5.494;2023-02-12T21:46:17;103577.59;;;5.54;100.00
47897;BME280;39629;51.400;5.494;2023-02-12T21:51:23;103573.19;;;5.53;100.00
47897;BME280;39629;51.400;5.494;2023-02-12T21:56:26;103573.13;;;5.38;100.00
47897;BME280;39629;51.400;5.494;2023-02-12T22:01:31;103572.50;;;5.42;100.00
47897;BME280;39629;51.400;5.494;2023-02-12T22:06:35;103583.09;;;5.31;100.00
47897;BME280;39629;51.400;5.494;2023-02-12T22:11:39;103589.22;;;5.31;100.00
47897;BME280;39629;51.400;5.494;2023-02-12T22:16:41;103584.63;;;5.14;100.00
47897;BME280;39629;51.400;5.494;2023-02-12T22:21:42;103585.03;;;5.20;100.00
47897;BME280;39629;51.400;5.494;2023-02-12T22:26:46;103582.44;;;5.06;100.00
47897;BME280;39629;51.400;5.494;2023-02-12T22:31:48;103582.06;;;5.00;100.00
47897;BME280;39629;51.400;5.494;2023-02-12T22:36:49;103581.66;;;4.94;100.00
47897;BME280;39629;51.400;5.494;2023-02-12T22:41:52;103581.91;;;5.12;100.00
47897;BME280;39629;51.400;5.494;2023-02-12T22:46:54;103584.44;;;5.10;100.00
47897;BME280;39629;51.400;5.494;2023-02-12T22:51:55;103581.34;;;4.89;100.00
47897;BME280;39629;51.400;5.494;2023-02-12T22:56:59;103570.72;;;4.86;100.00
47897;BME280;39629;51.400;5.494;2023-02-12T23:02:00;103573.44;;;4.88;100.00
47897;BME280;39629;51.400;5.494;2023-02-12T23:07:03;103561.78;;;4.96;100.00
47897;BME280;39629;51.400;5.494;2023-02-12T23:12:06;103564.81;;;4.62;100.00
47897;BME280;39629;51.400;5.494;2023-02-12T23:17:10;103560.19;;;4.58;100.00
47897;BME280;39629;51.400;5.494;2023-02-12T23:22:11;103558.75;;;4.23;100.00
47897;BME280;39629;51.400;5.494;2023-02-12T23:27:14;103558.31;;;4.03;100.00
47897;BME280;39629;51.400;5.494;2023-02-12T23:32:16;103550.34;;;3.88;100.00
47897;BME280;39629;51.400;5.494;2023-02-12T23:37:18;103546.66;;;3.85;100.00
47897;BME280;39629;51.400;5.494;2023-02-12T23:42:20;103545.72;;;3.71;100.00
47897;BME280;39629;51.400;5.494;2023-02-12T23:47:22;103545.84;;;3.61;100.00
47897;BME280;39629;51.400;5.494;2023-02-12T23:52:24;103538.31;;;3.52;100.00
47897;BME280;39629;51.400;5.494;2023-02-12T23:57:27;103544.28;;;3.37;100.00
